Time;durP1;ratioP1;P1;durP2;ratioP2;P2;SDS_P1;SDS_P2;PMS_P1;PMS_P2;Temp;Humidity;BMP_temperature;BMP_pressure;BME280_temperature;BME280_humidity;BME280_pressure;Samples;Min_cycle;Max_cycle;Signal;HPM_P1;HPM_P2
2023/08/04 00:04:39;;;;;;;14.37;7.50;;;;;12.30;100564.00;;;;10276353;28;20250;-77
2023/08/04 00:09:41;;;;;;;19.47;8.17;;;;;12.30;100574.00;;;;10261906;28;21550;-77
2023/08/04 00:14:45;;;;;;;17.43;7.90;;;;;12.20;100572.00;;;;10279063;28;20214;-77
2023/08/04 00:19:46;;;;;;;23.73;7.80;;;;;12.10;100573.00;;;;10278340;28;20222;-77
2023/08/04 00:24:47;;;;;;;16.37;8.73;;;;;12.10;100583.00;;;;10260316;28;20740;-77
2023/08/04 00:29:49;;;;;;;29.60;8.90;;;;;12.00;100572.00;;;;10262166;28;20241;-76
2023/08/04 00:34:50;;;;;;;17.67;8.23;;;;;12.00;100578.00;;;;10260526;28;20512;-78
2023/08/04 00:39:51;;;;;;;18.87;8.67;;;;;12.00;100576.00;;;;10260409;28;20211;-78
2023/08/04 00:44:52;;;;;;;18.83;8.80;;;;;12.00;100574.00;;;;10259464;28;20223;-78
2023/08/04 00:49:54;;;;;;;23.03;8.07;;;;;12.00;100582.00;;;;10258541;28;20417;-77
2023/08/04 00:54:55;;;;;;;17.10;8.33;;;;;12.00;100586.00;;;;10275235;28;21010;-77
2023/08/04 00:59:57;;;;;;;18.77;8.33;;;;;11.90;100586.00;;;;10278099;28;20211;-76
2023/08/04 01:05:00;;;;;;;20.97;9.03;;;;;11.90;100579.00;;;;10255077;28;20219;-76
2023/08/04 01:10:26;;;;;;;19.43;8.43;;;;;11.90;100592.00;;;;10270626;28;20889;-77
2023/08/04 01:15:30;;;;;;;17.20;8.77;;;;;11.90;100598.00;;;;10251883;28;20733;-78
2023/08/04 01:20:31;;;;;;;23.13;8.27;;;;;11.80;100589.00;;;;10251219;28;20219;-77
2023/08/04 01:25:37;;;;;;;18.00;8.43;;;;;11.70;100593.00;;;;10267735;28;20353;-78
2023/08/04 01:30:40;;;;;;;19.47;9.80;;;;;11.70;100597.00;;;;10250745;28;20445;-77
2023/08/04 01:35:42;;;;;;;18.67;9.93;;;;;11.70;100606.00;;;;10234743;28;20215;-77
2023/08/04 01:40:43;;;;;;;22.97;9.03;;;;;11.70;100608.00;;;;10252371;28;20829;-78
2023/08/04 01:45:45;;;;;;;21.23;9.57;;;;;11.70;100608.00;;;;10268253;28;20227;-77
2023/08/04 01:50:46;;;;;;;24.60;9.87;;;;;11.70;100606.00;;;;10255710;28;20242;-77
2023/08/04 01:55:48;;;;;;;21.17;9.27;;;;;11.70;100605.00;;;;10259127;28;21115;-76
2023/08/04 02:00:49;;;;;;;26.03;9.93;;;;;11.80;100612.00;;;;10239597;28;20211;-77
2023/08/04 02:05:50;;;;;;;23.93;10.53;;;;;11.90;100611.00;;;;10274719;28;20716;-76
2023/08/04 02:10:52;;;;;;;17.13;10.43;;;;;12.00;100603.00;;;;10273857;28;21184;-76
2023/08/04 02:15:53;;;;;;;24.43;11.00;;;;;12.20;100617.00;;;;10259651;28;20329;-77
2023/08/04 02:20:54;;;;;;;23.33;10.07;;;;;12.30;100619.00;;;;10274664;28;20214;-77
2023/08/04 02:25:56;;;;;;;24.17;11.03;;;;;12.40;100623.00;;;;10270836;28;20790;-77
2023/08/04 02:30:59;;;;;;;26.33;11.83;;;;;12.50;100624.00;;;;10254993;28;20203;-76
2023/08/04 02:36:03;;;;;;;20.93;10.77;;;;;12.60;100624.00;;;;10274015;28;20663;-77
2023/08/04 02:41:08;;;;;;;29.07;11.53;;;;;12.60;100629.00;;;;10272259;28;20843;-78
2023/08/04 02:46:10;;;;;;;22.03;10.17;;;;;12.70;100630.00;;;;10269557;28;20223;-77
2023/08/04 02:51:12;;;;;;;23.63;9.87;;;;;12.70;100644.00;;;;10255029;28;20301;-77
2023/08/04 02:56:16;;;;;;;32.60;11.17;;;;;12.80;100641.00;;;;10274101;28;20261;-77
2023/08/04 03:01:17;;;;;;;25.67;10.90;;;;;12.80;100647.00;;;;10252897;28;21708;-77
2023/08/04 03:06:18;;;;;;;20.20;11.40;;;;;12.80;100643.00;;;;10252909;28;20266;-78
2023/08/04 03:11:20;;;;;;;28.80;11.10;;;;;12.80;100649.00;;;;10257033;28;20616;-77
2023/08/04 03:16:21;;;;;;;21.60;10.30;;;;;12.80;100644.00;;;;10253125;28;20586;-77
2023/08/04 03:21:23;;;;;;;23.63;10.73;;;;;12.70;100638.00;;;;10237270;28;20211;-78
2023/08/04 03:26:24;;;;;;;22.63;10.47;;;;;12.70;100654.00;;;;10270326;28;20296;-76
2023/08/04 03:31:25;;;;;;;24.50;11.23;;;;;12.70;100652.00;;;;10251642;28;20222;-77
2023/08/04 03:36:27;;;;;;;26.77;10.57;;;;;12.70;100652.00;;;;10266893;28;20555;-76
2023/08/04 03:41:28;;;;;;;25.60;11.13;;;;;12.70;100657.00;;;;10268590;28;20397;-77
2023/08/04 03:46:29;;;;;;;20.77;10.77;;;;;12.80;100662.00;;;;10268671;28;20219;-77
2023/08/04 03:51:31;;;;;;;25.43;11.10;;;;;12.80;100671.00;;;;10249477;28;20250;-77
2023/08/04 03:56:32;;;;;;;23.77;11.33;;;;;12.80;100671.00;;;;10267757;28;20203;-77
2023/08/04 04:01:34;;;;;;;25.90;11.00;;;;;12.80;100669.00;;;;10269352;28;20298;-77
2023/08/04 04:06:35;;;;;;;26.67;11.17;;;;;12.80;100671.00;;;;10271874;28;20287;-77
2023/08/04 04:11:37;;;;;;;22.27;11.03;;;;;12.80;100679.00;;;;10267005;28;20244;-77
2023/08/04 04:16:39;;;;;;;25.33;11.43;;;;;12.90;100677.00;;;;10269160;28;20916;-77
2023/08/04 04:21:40;;;;;;;25.93;10.87;;;;;13.00;100661.00;;;;10236239;28;20456;-77
2023/08/04 04:26:42;;;;;;;24.70;12.27;;;;;13.10;100668.00;;;;10251433;28;20273;-77
2023/08/04 04:31:43;;;;;;;21.33;10.68;;;;;13.10;100675.00;;;;10251290;28;20302;-77
2023/08/04 04:36:45;;;;;;;22.60;11.23;;;;;13.20;100681.00;;;;10249401;28;20215;-77
2023/08/04 04:41:47;;;;;;;20.77;12.30;;;;;13.30;100684.00;;;;10253108;28;20659;-78
2023/08/04 04:46:49;;;;;;;19.33;10.77;;;;;13.40;100686.00;;;;10252107;28;20697;-77
2023/08/04 04:51:50;;;;;;;33.28;13.55;;;;;13.50;100700.00;;;;10266825;28;20203;-77
2023/08/04 04:56:52;;;;;;;23.30;11.73;;;;;13.70;100697.00;;;;10254159;28;22000;-77
2023/08/04 05:01:53;;;;;;;32.33;12.88;;;;;13.90;100702.00;;;;10269304;28;20318;-77
2023/08/04 05:06:54;;;;;;;28.95;12.82;;;;;14.00;100705.00;;;;10267230;28;20211;-78
2023/08/04 05:11:56;;;;;;;29.00;12.10;;;;;14.10;100710.00;;;;10270293;28;21653;-77
2023/08/04 05:16:57;;;;;;;22.07;12.63;;;;;14.20;100712.00;;;;10248502;28;20314;-78
2023/08/04 05:21:58;;;;;;;23.58;12.45;;;;;14.30;100727.00;;;;10249382;28;20273;-77
2023/08/04 05:26:59;;;;;;;23.35;11.80;;;;;14.60;100725.00;;;;10263504;28;20770;-77
2023/08/04 05:32:01;;;;;;;25.63;12.73;;;;;14.80;100727.00;;;;10217755;28;20273;-77
2023/08/04 05:37:02;;;;;;;23.10;11.82;;;;;15.00;100732.00;;;;10249127;28;20229;-77
2023/08/04 05:42:04;;;;;;;29.30;12.80;;;;;15.20;100737.00;;;;10245504;28;20693;-77
2023/08/04 05:47:05;;;;;;;24.08;12.02;;;;;15.30;100741.00;;;;10232520;28;21890;-77
2023/08/04 05:52:07;;;;;;;23.65;11.20;;;;;15.40;100745.00;;;;10266862;28;20230;-78
2023/08/04 05:57:08;;;;;;;25.40;11.75;;;;;15.40;100751.00;;;;10245592;28;20203;-77
2023/08/04 06:02:09;;;;;;;20.15;10.60;;;;;15.60;100759.00;;;;10245910;28;20223;-77
2023/08/04 06:07:11;;;;;;;22.92;11.32;;;;;15.80;100764.00;;;;10265006;28;20212;-78
2023/08/04 06:12:13;;;;;;;27.05;11.45;;;;;16.00;100761.00;;;;10266293;28;20282;-77
2023/08/04 06:17:14;;;;;;;20.92;10.63;;;;;16.40;100768.00;;;;10261811;28;20211;-76
2023/08/04 06:22:15;;;;;;;22.50;9.98;;;;;16.60;100770.00;;;;10243658;28;20226;-78
2023/08/04 06:27:17;;;;;;;15.45;9.60;;;;;16.50;100784.00;;;;10265717;28;20211;-77
2023/08/04 06:32:18;;;;;;;14.30;9.70;;;;;16.60;100795.00;;;;10231421;28;20664;-77
2023/08/04 06:37:19;;;;;;;22.90;10.13;;;;;16.80;100801.00;;;;10250545;28;20493;-78
2023/08/04 06:42:21;;;;;;;17.95;9.02;;;;;16.90;100800.00;;;;10274500;28;20265;-77
2023/08/04 06:47:22;;;;;;;16.75;8.93;;;;;16.90;100815.00;;;;10255934;28;20215;-77
2023/08/04 06:52:23;;;;;;;15.93;8.27;;;;;16.80;100818.00;;;;10254401;28;20247;-77
2023/08/04 06:57:25;;;;;;;16.33;8.55;;;;;16.50;100826.00;;;;10255323;28;21439;-78
2023/08/04 07:02:26;;;;;;;10.88;7.28;;;;;16.60;100837.00;;;;10271513;28;20313;-77
2023/08/04 07:07:28;;;;;;;14.20;8.40;;;;;16.90;100828.00;;;;10255632;28;20219;-77
2023/08/04 07:12:29;;;;;;;14.23;7.55;;;;;17.30;100839.00;;;;10253766;28;21882;-77
2023/08/04 07:17:31;;;;;;;13.05;7.35;;;;;17.70;100847.00;;;;10272786;28;21691;-78
2023/08/04 07:22:32;;;;;;;13.07;6.25;;;;;17.70;100837.00;;;;10273186;28;20728;-78
2023/08/04 07:27:33;;;;;;;8.88;6.60;;;;;17.60;100847.00;;;;10252587;28;20241;-78
2023/08/04 07:32:35;;;;;;;10.68;6.22;;;;;17.60;100846.00;;;;10271955;28;20297;-78
2023/08/04 07:37:36;;;;;;;9.90;4.88;;;;;17.20;100860.00;;;;10270826;28;20231;-78
2023/08/04 07:42:37;;;;;;;8.30;5.20;;;;;16.90;100864.00;;;;10253498;28;21701;-77
2023/08/04 07:47:39;;;;;;;10.20;4.80;;;;;16.90;100861.00;;;;10270221;28;20242;-78
2023/08/04 07:52:40;;;;;;;7.10;4.30;;;;;17.60;100861.00;;;;10269628;28;20329;-78
2023/08/04 07:57:41;;;;;;;4.65;3.35;;;;;18.00;100868.00;;;;10255327;28;20712;-78
2023/08/04 08:02:43;;;;;;;8.40;3.50;;;;;18.00;100874.00;;;;10238601;28;20811;-78
2023/08/04 08:07:44;;;;;;;7.15;3.30;;;;;17.80;100884.00;;;;10234311;28;21285;-78
2023/08/04 08:12:47;;;;;;;5.82;2.78;;;;;17.30;100883.00;;;;10266862;28;20226;-80
2023/08/04 08:17:49;;;;;;;4.90;3.20;;;;;17.60;100889.00;;;;10248961;28;20815;-79
2023/08/04 08:22:50;;;;;;;4.50;3.50;;;;;18.40;100889.00;;;;10231474;28;20234;-79
2023/08/04 08:27:52;;;;;;;4.65;3.35;;;;;19.40;100901.00;;;;10249968;28;20207;-77
2023/08/04 08:32:53;;;;;;;3.63;2.95;;;;;19.50;100915.00;;;;10247667;28;20224;-78
2023/08/04 08:37:55;;;;;;;6.30;2.58;;;;;19.20;100911.00;;;;10266736;28;20207;-78
2023/08/04 08:42:57;;;;;;;3.88;2.70;;;;;19.80;100907.00;;;;10247495;28;20223;-77
2023/08/04 08:47:58;;;;;;;5.45;3.13;;;;;20.50;100921.00;;;;10247147;28;20219;-79
2023/08/04 08:53:03;;;;;;;4.95;2.80;;;;;20.80;100935.00;;;;10266778;28;20692;-79
2023/08/04 08:58:05;;;;;;;2.88;2.50;;;;;20.30;100931.00;;;;10246705;28;20215;-78
2023/08/04 09:03:07;;;;;;;3.83;2.70;;;;;20.00;100931.00;;;;10247441;28;20215;-78
2023/08/04 09:08:08;;;;;;;4.43;2.88;;;;;20.60;100926.00;;;;10234692;28;20264;-78
2023/08/04 09:13:11;;;;;;;3.40;2.40;;;;;20.00;100938.00;;;;10262933;28;20211;-79
2023/08/04 09:18:38;;;;;;;6.57;2.60;;;;;19.90;100935.00;;;;10265356;28;21856;-78
2023/08/04 09:23:48;;;;;;;3.83;2.30;;;;;21.10;100936.00;;;;10246426;28;20815;-78
2023/08/04 09:29:15;;;;;;;6.93;2.50;;;;;22.00;100944.00;;;;10248235;28;20353;-79
2023/08/04 09:34:17;;;;;;;5.25;2.50;;;;;22.60;100939.00;;;;10246545;28;20645;-79
2023/08/04 09:39:18;;;;;;;4.20;2.15;;;;;22.20;100948.00;;;;10246431;28;20743;-78
2023/08/04 09:44:19;;;;;;;3.67;1.80;;;;;21.80;100947.00;;;;10252376;28;20227;-78
2023/08/04 09:49:22;;;;;;;5.70;2.20;;;;;22.60;100941.00;;;;10265808;28;20223;-78
2023/08/04 09:54:23;;;;;;;5.18;1.70;;;;;23.30;100941.00;;;;10266886;28;20207;-80
2023/08/04 09:59:25;;;;;;;5.32;1.98;;;;;22.80;100945.00;;;;10267204;28;21218;-79
2023/08/04 10:04:27;;;;;;;3.60;1.52;;;;;22.50;100947.00;;;;10232083;28;20237;-78
2023/08/04 10:09:31;;;;;;;4.55;2.33;;;;;23.30;100945.00;;;;10267546;28;20331;-79
2023/08/04 10:14:32;;;;;;;7.15;2.22;;;;;24.10;100944.00;;;;10244011;28;21274;-78
2023/08/04 10:19:34;;;;;;;4.35;2.03;;;;;23.90;100946.00;;;;10273893;28;20688;-78
2023/08/04 10:24:42;;;;;;;4.25;1.65;;;;;22.80;100955.00;;;;10275027;28;20227;-80
2023/08/04 10:29:44;;;;;;;6.18;2.13;;;;;21.50;100954.00;;;;10224153;28;20199;-78
2023/08/04 10:34:47;;;;;;;4.43;2.53;;;;;21.10;100936.00;;;;10257596;28;20203;-78
2023/08/04 10:39:58;;;;;;;3.72;2.03;;;;;22.30;100949.00;;;;10276461;28;20906;-79
2023/08/04 10:45:07;;;;;;;4.82;2.28;;;;;23.20;100949.00;;;;10258693;28;20231;-78
2023/08/04 10:50:10;;;;;;;4.80;1.50;;;;;23.30;100947.00;;;;10258925;28;20476;-78
2023/08/04 10:55:13;;;;;;;3.92;1.45;;;;;23.40;100950.00;;;;10277559;28;20207;-78
2023/08/04 11:00:15;;;;;;;4.00;1.50;;;;;24.20;100959.00;;;;10239242;28;21062;-78
2023/08/04 11:05:21;;;;;;;4.18;1.77;;;;;24.20;100960.00;;;;10273627;28;20223;-79
2023/08/04 11:10:23;;;;;;;4.97;1.55;;;;;23.10;100967.00;;;;10255625;28;20214;-78
2023/08/04 11:15:26;;;;;;;3.83;1.30;;;;;23.30;100967.00;;;;10272346;28;20214;-78
2023/08/04 11:20:28;;;;;;;1.70;1.13;;;;;23.10;100978.00;;;;10258112;28;20898;-78
2023/08/04 11:25:34;;;;;;;2.97;1.48;;;;;24.00;100977.00;;;;10239146;28;21385;-78
2023/08/04 11:30:36;;;;;;;2.85;1.42;;;;;24.50;100972.00;;;;10272829;28;20937;-78
2023/08/04 11:35:38;;;;;;;3.67;1.20;;;;;25.10;100975.00;;;;10274816;28;20211;-79
2023/08/04 11:40:57;;;;;;;3.97;1.33;;;;;23.10;100972.00;;;;10272104;28;20223;-78
2023/08/04 11:46:01;;;;;;;1.30;0.90;;;;;24.00;100975.00;;;;10255101;28;20290;-77
2023/08/04 11:51:07;;;;;;;1.83;0.90;;;;;22.40;100981.00;;;;10237575;28;20366;-78
2023/08/04 11:56:08;;;;;;;1.15;0.80;;;;;22.90;100968.00;;;;10252682;28;20242;-78
2023/08/04 12:01:29;;;;;;;2.20;1.00;;;;;24.30;100972.00;;;;10270003;28;20896;-78
2023/08/04 12:06:31;;;;;;;1.35;0.90;;;;;24.10;100968.00;;;;10251939;28;20753;-78
2023/08/04 12:11:46;;;;;;;1.90;0.80;;;;;25.10;100971.00;;;;10267800;28;20211;-79
2023/08/04 12:16:58;;;;;;;1.65;0.75;;;;;25.90;100977.00;;;;10253601;28;20242;-77
2023/08/04 12:22:03;;;;;;;1.50;1.10;;;;;25.70;100983.00;;;;10268067;28;20215;-79
2023/08/04 12:27:05;;;;;;;0.60;0.60;;;;;25.40;100980.00;;;;10253486;28;20307;-78
2023/08/04 12:32:07;;;;;;;1.08;0.98;;;;;24.70;100988.00;;;;10270852;28;20297;-78
2023/08/04 12:37:08;;;;;;;1.55;1.20;;;;;25.20;100972.00;;;;10235009;28;20214;-79
2023/08/04 12:42:09;;;;;;;1.35;0.68;;;;;25.90;100973.00;;;;10268317;28;20218;-78
2023/08/04 12:47:11;;;;;;;3.13;0.88;;;;;26.10;100965.00;;;;10270791;28;20789;-78
2023/08/04 12:52:12;;;;;;;1.17;1.08;;;;;26.00;100982.00;;;;10268692;28;20333;-78
2023/08/04 12:57:14;;;;;;;1.02;0.90;;;;;25.70;100978.00;;;;10268108;28;20214;-78
2023/08/04 13:02:15;;;;;;;1.95;1.05;;;;;25.60;100986.00;;;;10270503;28;20216;-79
2023/08/04 13:07:17;;;;;;;1.25;0.90;;;;;26.30;100966.00;;;;10250834;28;20211;-78
2023/08/04 13:12:18;;;;;;;0.93;0.93;;;;;26.70;100979.00;;;;10251759;28;22167;-78
2023/08/04 13:17:20;;;;;;;1.17;0.95;;;;;26.80;100981.00;;;;10268942;28;20262;-78
2023/08/04 13:22:21;;;;;;;2.08;1.15;;;;;25.50;100994.00;;;;10266483;28;20216;-78
2023/08/04 13:27:23;;;;;;;2.72;1.35;;;;;23.40;100994.00;;;;10252436;28;20207;-77
2023/08/04 13:32:24;;;;;;;6.13;1.52;;;;;23.90;101003.00;;;;10269676;28;20211;-76
2023/08/04 13:37:27;;;;;;;2.30;1.30;;;;;23.70;101006.00;;;;10251722;28;20320;-77
2023/08/04 13:42:28;;;;;;;2.22;1.20;;;;;22.30;101016.00;;;;10249919;28;21439;-78
2023/08/04 13:47:29;;;;;;;2.78;2.10;;;;;21.70;101020.00;;;;10256221;28;20566;-77
2023/08/04 13:52:31;;;;;;;0.82;0.75;;;;;22.90;101020.00;;;;10260791;28;20298;-79
2023/08/04 13:57:33;;;;;;;2.25;0.98;;;;;24.00;101028.00;;;;10274297;28;20289;-77
2023/08/04 14:02:43;;;;;;;1.73;1.23;;;;;24.50;101037.00;;;;10275191;28;20342;-78
2023/08/04 14:07:44;;;;;;;3.30;1.00;;;;;24.30;101037.00;;;;10241407;28;20231;-79
2023/08/04 14:12:46;;;;;;;2.00;0.90;;;;;23.60;101041.00;;;;10258742;28;21434;-79
2023/08/04 14:17:48;;;;;;;1.60;1.08;;;;;23.40;101038.00;;;;10241590;28;20521;-78
2023/08/04 14:22:49;;;;;;;2.22;1.13;;;;;23.30;101041.00;;;;10272879;28;20234;-78
2023/08/04 14:27:50;;;;;;;1.10;1.10;;;;;24.80;101030.00;;;;10272009;28;21213;-78
2023/08/04 14:32:51;;;;;;;0.70;0.70;;;;;25.00;101032.00;;;;10274125;28;20255;-77
2023/08/04 14:37:53;;;;;;;1.35;0.80;;;;;24.30;101020.00;;;;10274202;28;20219;-78
2023/08/04 14:42:54;;;;;;;1.23;0.70;;;;;23.90;101019.00;;;;10276316;28;20223;-78
2023/08/04 14:47:56;;;;;;;1.17;0.88;;;;;23.90;101022.00;;;;10257335;28;20301;-77
2023/08/04 14:52:57;;;;;;;2.35;0.70;;;;;23.80;101050.00;;;;10258361;28;20296;-77
2023/08/04 14:57:58;;;;;;;3.20;0.77;;;;;23.40;101045.00;;;;10273176;28;20211;-77
2023/08/04 15:02:59;;;;;;;0.70;0.60;;;;;23.30;101041.00;;;;10271912;28;20579;-77
2023/08/04 15:08:01;;;;;;;1.05;0.70;;;;;23.10;101027.00;;;;10272593;28;20977;-78
2023/08/04 15:13:05;;;;;;;1.92;0.90;;;;;22.90;101037.00;;;;10270920;28;20261;-77
2023/08/04 15:18:07;;;;;;;2.33;0.75;;;;;23.40;101034.00;;;;10272292;28;20215;-78
2023/08/04 15:23:08;;;;;;;1.08;0.98;;;;;23.10;101049.00;;;;10271682;28;20230;-76
2023/08/04 15:28:09;;;;;;;2.28;0.88;;;;;25.40;101045.00;;;;10271587;28;20214;-78
2023/08/04 15:33:11;;;;;;;1.60;0.80;;;;;25.10;101056.00;;;;10272188;28;20401;-77
2023/08/04 15:38:12;;;;;;;0.90;0.80;;;;;23.20;101047.00;;;;10253481;28;20207;-78
2023/08/04 15:43:18;;;;;;;0.68;0.68;;;;;24.60;101026.00;;;;10253736;28;20218;-77
2023/08/04 15:48:19;;;;;;;1.20;1.10;;;;;25.30;101052.00;;;;10254313;28;20231;-77
2023/08/04 15:53:20;;;;;;;3.10;1.35;;;;;22.50;101065.00;;;;10270048;28;20215;-77
2023/08/04 15:58:23;;;;;;;1.65;1.30;;;;;21.60;101054.00;;;;10270716;28;20302;-77
2023/08/04 16:03:24;;;;;;;3.40;1.58;;;;;21.40;101059.00;;;;10270572;28;20224;-77
2023/08/04 16:08:26;;;;;;;1.58;1.40;;;;;21.00;101067.00;;;;10270739;28;20443;-77
2023/08/04 16:13:28;;;;;;;3.28;1.30;;;;;21.00;101073.00;;;;10251225;28;20265;-77
2023/08/04 16:18:31;;;;;;;2.72;1.90;;;;;20.80;101074.00;;;;10251646;28;20301;-78
2023/08/04 16:23:33;;;;;;;2.08;1.50;;;;;20.70;101077.00;;;;10236734;28;20459;-77
2023/08/04 16:28:35;;;;;;;4.22;2.10;;;;;20.30;101075.00;;;;10268600;28;20450;-78
2023/08/04 16:33:36;;;;;;;3.13;1.58;;;;;20.20;101071.00;;;;10252147;28;20624;-77
2023/08/04 16:38:37;;;;;;;3.25;1.88;;;;;20.20;101084.00;;;;10251953;28;20223;-76
2023/08/04 16:43:38;;;;;;;2.67;1.80;;;;;20.30;101096.00;;;;10250315;28;20289;-77
2023/08/04 16:48:39;;;;;;;3.05;1.55;;;;;20.50;101099.00;;;;10268329;28;20262;-78
2023/08/04 16:53:41;;;;;;;2.10;1.50;;;;;20.60;101101.00;;;;10267930;28;21373;-78
2023/08/04 16:58:43;;;;;;;2.92;1.45;;;;;20.50;101102.00;;;;10266503;28;20666;-77
2023/08/04 17:03:45;;;;;;;1.60;1.17;;;;;20.40;101106.00;;;;10250063;28;20655;-77
2023/08/04 17:08:46;;;;;;;2.88;1.50;;;;;19.90;101110.00;;;;10251991;28;20269;-77
2023/08/04 17:13:47;;;;;;;4.00;1.10;;;;;19.70;101117.00;;;;10249672;28;20637;-78
2023/08/04 17:18:50;;;;;;;2.78;1.20;;;;;19.60;101109.00;;;;10267419;28;20219;-77
2023/08/04 17:23:52;;;;;;;2.45;1.42;;;;;19.40;101120.00;;;;10266786;28;20238;-77
2023/08/04 17:28:53;;;;;;;4.03;1.60;;;;;19.40;101129.00;;;;10268671;28;20577;-78
2023/08/04 17:33:55;;;;;;;3.92;1.63;;;;;19.20;101134.00;;;;10233702;28;20214;-77
2023/08/04 17:38:56;;;;;;;3.47;1.38;;;;;19.30;101129.00;;;;10232199;28;20396;-76
2023/08/04 17:43:58;;;;;;;1.35;1.25;;;;;19.40;101127.00;;;;10240139;28;20308;-77
2023/08/04 17:48:59;;;;;;;2.80;1.65;;;;;19.50;101135.00;;;;10246316;28;20215;-76
2023/08/04 17:54:00;;;;;;;4.30;1.30;;;;;19.50;101133.00;;;;10232151;28;20225;-77
2023/08/04 17:59:02;;;;;;;1.73;1.30;;;;;19.30;101146.00;;;;10263412;28;20242;-78
2023/08/04 18:04:04;;;;;;;2.03;1.13;;;;;19.10;101149.00;;;;10248489;28;20231;-77
2023/08/04 18:09:05;;;;;;;2.97;1.20;;;;;18.90;101154.00;;;;10249597;28;20208;-77
2023/08/04 18:14:07;;;;;;;2.97;1.38;;;;;18.80;101156.00;;;;10266275;28;21615;-77
2023/08/04 18:19:10;;;;;;;3.15;2.20;;;;;18.70;101155.00;;;;10265643;28;21029;-78
2023/08/04 18:24:11;;;;;;;2.97;1.25;;;;;18.50;101164.00;;;;10263635;28;20231;-77
2023/08/04 18:29:13;;;;;;;2.58;1.15;;;;;18.30;101162.00;;;;10263742;28;20901;-77
2023/08/04 18:34:15;;;;;;;4.70;1.48;;;;;18.20;101172.00;;;;10254801;28;20266;-77
2023/08/04 18:39:16;;;;;;;2.75;1.20;;;;;18.10;101174.00;;;;10254338;28;20199;-78
2023/08/04 18:44:17;;;;;;;2.45;1.40;;;;;18.20;101174.00;;;;10270688;28;20680;-78
2023/08/04 18:49:19;;;;;;;5.15;1.98;;;;;18.00;101176.00;;;;10270685;28;20215;-77
2023/08/04 18:54:20;;;;;;;3.15;1.52;;;;;17.80;101189.00;;;;10231983;28;20548;-77
2023/08/04 18:59:21;;;;;;;2.83;1.50;;;;;17.60;101192.00;;;;10250681;28;20909;-78
2023/08/04 19:04:23;;;;;;;2.88;1.42;;;;;17.50;101196.00;;;;10271856;28;21258;-77
2023/08/04 19:09:24;;;;;;;4.50;1.60;;;;;17.30;101200.00;;;;10252279;28;20208;-76
2023/08/04 19:14:26;;;;;;;3.70;1.67;;;;;17.10;101200.00;;;;10268675;28;20214;-77
2023/08/04 19:19:27;;;;;;;2.97;1.80;;;;;17.00;101213.00;;;;10234145;28;20482;-77
2023/08/04 19:24:28;;;;;;;5.95;2.00;;;;;16.80;101218.00;;;;10250137;28;20235;-77
2023/08/04 19:29:30;;;;;;;2.25;1.90;;;;;16.70;101226.00;;;;10249767;28;20338;-76
2023/08/04 19:34:31;;;;;;;3.03;2.42;;;;;16.50;101227.00;;;;10251245;28;20218;-77
2023/08/04 19:39:32;;;;;;;8.65;2.25;;;;;16.30;101239.00;;;;10267569;28;20216;-76
2023/08/04 19:44:35;;;;;;;7.22;2.17;;;;;16.20;101238.00;;;;10271121;28;20281;-78
2023/08/04 19:49:36;;;;;;;4.35;1.90;;;;;16.10;101245.00;;;;10255330;28;20242;-77
2023/08/04 19:54:40;;;;;;;4.25;2.10;;;;;15.90;101241.00;;;;10270331;28;20628;-77
2023/08/04 19:59:41;;;;;;;7.07;2.33;;;;;15.80;101245.00;;;;10275278;28;20227;-77
2023/08/04 20:04:43;;;;;;;8.07;2.35;;;;;15.70;101234.00;;;;10272498;28;20736;-76
2023/08/04 20:09:45;;;;;;;4.43;2.42;;;;;15.60;101232.00;;;;10271195;28;20946;-77
2023/08/04 20:14:49;;;;;;;7.22;2.40;;;;;15.60;101232.00;;;;10270465;28;20210;-78
2023/08/04 20:19:51;;;;;;;4.25;2.58;;;;;15.50;101233.00;;;;10250852;28;20469;-78
2023/08/04 20:24:53;;;;;;;4.53;2.03;;;;;15.40;101230.00;;;;10254197;28;20731;-77
2023/08/04 20:29:54;;;;;;;4.95;2.30;;;;;15.20;101237.00;;;;10253096;28;20298;-77
2023/08/04 20:34:56;;;;;;;5.15;2.55;;;;;15.10;101235.00;;;;10269028;28;20211;-78
2023/08/04 20:39:57;;;;;;;3.83;2.80;;;;;14.90;101242.00;;;;10242726;28;20312;-77
2023/08/04 20:44:59;;;;;;;6.13;2.95;;;;;14.80;101242.00;;;;10236144;28;20250;-77
2023/08/04 20:50:00;;;;;;;9.45;3.90;;;;;14.70;101241.00;;;;10251351;28;20207;-77
2023/08/04 20:55:02;;;;;;;5.43;2.85;;;;;14.60;101244.00;;;;10271606;28;20215;-76
2023/08/04 21:00:04;;;;;;;5.97;3.33;;;;;14.50;101243.00;;;;10268802;28;20208;-76
2023/08/04 21:05:05;;;;;;;6.20;2.60;;;;;14.40;101251.00;;;;10268623;28;20918;-77
2023/08/04 21:10:07;;;;;;;7.30;2.85;;;;;14.30;101254.00;;;;10269516;28;20760;-76
2023/08/04 21:15:09;;;;;;;6.03;3.00;;;;;14.30;101253.00;;;;10251133;28;20322;-77
2023/08/04 21:20:15;;;;;;;4.20;3.80;;;;;14.20;101256.00;;;;10251895;28;20214;-77
2023/08/04 21:25:16;;;;;;;4.07;3.10;;;;;14.10;101268.00;;;;10233803;28;20231;-76
2023/08/04 21:30:17;;;;;;;8.65;3.72;;;;;14.10;101255.00;;;;10267438;28;20214;-77
2023/08/04 21:35:19;;;;;;;11.65;4.68;;;;;14.00;101259.00;;;;10254190;28;20509;-77
2023/08/04 21:40:24;;;;;;;5.65;3.92;;;;;14.00;101255.00;;;;10250826;28;20268;-78
2023/08/04 21:45:26;;;;;;;9.07;4.15;;;;;13.90;101257.00;;;;10231042;28;20772;-77
2023/08/04 21:50:31;;;;;;;4.32;3.92;;;;;13.90;101250.00;;;;10250487;28;20228;-77
2023/08/04 21:55:33;;;;;;;6.90;3.67;;;;;13.80;101255.00;;;;10246849;28;20210;-78
2023/08/04 22:00:34;;;;;;;6.80;4.00;;;;;13.80;101252.00;;;;10247458;28;20211;-78
2023/08/04 22:05:36;;;;;;;4.82;3.72;;;;;13.80;101262.00;;;;10265513;28;20227;-77
2023/08/04 22:10:37;;;;;;;7.90;4.03;;;;;13.70;101267.00;;;;10253353;28;21025;-78
2023/08/04 22:15:42;;;;;;;5.85;3.78;;;;;13.70;101266.00;;;;10255040;28;20577;-77
2023/08/04 22:20:54;;;;;;;5.07;4.33;;;;;13.60;101257.00;;;;10269882;28;20716;-77
2023/08/04 22:25:56;;;;;;;9.20;4.40;;;;;13.60;101256.00;;;;10255739;28;20239;-77
2023/08/04 22:31:01;;;;;;;9.27;3.97;;;;;13.60;101252.00;;;;10272317;28;20649;-77
2023/08/04 22:36:03;;;;;;;11.40;4.73;;;;;13.50;101252.00;;;;10269297;28;20211;-77
2023/08/04 22:41:04;;;;;;;9.95;4.70;;;;;13.50;101260.00;;;;10238313;28;20409;-77
2023/08/04 22:46:06;;;;;;;11.63;5.25;;;;;13.40;101260.00;;;;10255388;28;20737;-77
2023/08/04 22:51:12;;;;;;;6.20;4.63;;;;;13.40;101253.00;;;;10269845;28;20660;-78
2023/08/04 22:56:13;;;;;;;10.07;5.70;;;;;13.40;101252.00;;;;10254248;28;20530;-77
2023/08/04 23:01:15;;;;;;;6.27;5.60;;;;;13.30;101253.00;;;;10269322;28;20341;-76
2023/08/04 23:06:16;;;;;;;6.70;4.70;;;;;13.30;101250.00;;;;10270180;28;20227;-76
2023/08/04 23:11:18;;;;;;;6.95;5.55;;;;;13.20;101247.00;;;;10271157;28;20207;-76
2023/08/04 23:16:19;;;;;;;6.87;5.20;;;;;13.20;101254.00;;;;10267368;28;20208;-76
2023/08/04 23:21:21;;;;;;;7.77;6.03;;;;;13.10;101248.00;;;;10254496;28;21183;-77
2023/08/04 23:26:22;;;;;;;10.07;6.27;;;;;13.10;101241.00;;;;10253864;28;20618;-77
2023/08/04 23:31:24;;;;;;;8.35;5.38;;;;;13.00;101234.00;;;;10267624;28;21961;-77
2023/08/04 23:36:25;;;;;;;9.13;5.43;;;;;13.00;101222.00;;;;10252125;28;20719;-77
2023/08/04 23:41:27;;;;;;;8.40;6.03;;;;;13.00;101216.00;;;;10270486;28;20756;-77
2023/08/04 23:46:28;;;;;;;7.87;6.00;;;;;12.90;101210.00;;;;10250884;28;20285;-77
2023/08/04 23:51:29;;;;;;;8.23;5.88;;;;;12.90;101216.00;;;;10234954;28;20313;-76
2023/08/04 23:56:31;;;;;;;13.00;7.37;;;;;12.80;101218.00;;;;10267623;28;20203;-78
